createdAt,value
2024-02-26T00:00:24.134Z,37.75
2024-02-26T00:01:26.945Z,47.25
2024-02-26T00:02:29.593Z,34.95
2024-02-26T00:03:33.724Z,31.73
2024-02-26T00:04:36.481Z,39.35
2024-02-26T00:05:40.204Z,40.10
2024-02-26T00:06:42.940Z,34.08
2024-02-26T00:07:46.314Z,34.10
2024-02-26T00:08:48.905Z,39.33
2024-02-26T00:09:51.590Z,41.70
2024-02-26T00:10:54.679Z,30.30
2024-02-26T00:11:57.436Z,32.95
2024-02-26T00:13:00.052Z,31.50
2024-02-26T00:14:02.615Z,30.30
2024-02-26T00:15:06.380Z,32.45
2024-02-26T00:16:09.098Z,33.22
2024-02-26T00:17:11.684Z,34.33
2024-02-26T00:18:14.286Z,32.75
2024-02-26T00:19:17.109Z,37.80
2024-02-26T00:20:19.860Z,33.05
2024-02-26T00:21:22.793Z,39.92
2024-02-26T00:22:25.355Z,35.42
2024-02-26T00:23:28.720Z,37.00
2024-02-26T00:24:31.327Z,38.88
2024-02-26T00:25:33.868Z,37.55
2024-02-26T00:26:36.591Z,33.05
2024-02-26T00:27:41.417Z,34.20
2024-02-26T00:28:44.768Z,34.15
2024-02-26T00:29:47.485Z,37.67
2024-02-26T00:30:50.079Z,37.75
2024-02-26T00:31:52.947Z,36.70
2024-02-26T00:32:55.635Z,36.38
2024-02-26T00:33:58.642Z,36.40
2024-02-26T00:35:01.395Z,37.60
2024-02-26T00:36:04.649Z,37.70
2024-02-26T00:37:07.276Z,39.50
2024-02-26T00:38:09.873Z,38.35
2024-02-26T00:39:13.432Z,31.05
2024-02-26T00:40:16.338Z,34.15
2024-02-26T00:41:20.374Z,34.33
2024-02-26T00:42:22.987Z,34.78
2024-02-26T00:43:25.682Z,34.03
2024-02-26T00:44:28.269Z,38.65
2024-02-26T00:45:30.953Z,37.15
2024-02-26T00:46:33.743Z,35.70
2024-02-26T00:47:36.297Z,33.35
2024-02-26T00:48:39.201Z,35.78
2024-02-26T00:49:42.094Z,33.22
2024-02-26T00:50:45.080Z,31.80
2024-02-26T00:51:47.745Z,33.45
2024-02-26T00:52:50.369Z,34.25
2024-02-26T00:53:53.005Z,33.22
2024-02-26T00:54:55.614Z,40.08
2024-02-26T00:56:00.226Z,33.90
2024-02-26T00:57:02.768Z,41.22
2024-02-26T00:58:05.539Z,38.72
2024-02-26T00:59:08.218Z,38.90
2024-02-26T01:00:11.622Z,37.97
2024-02-26T01:01:14.675Z,38.25
2024-02-26T01:02:17.372Z,37.38
2024-02-26T01:03:20.589Z,36.65
2024-02-26T01:04:23.342Z,40.53
2024-02-26T01:05:25.953Z,41.30
2024-02-26T01:06:28.653Z,34.55
2024-02-26T01:07:36.924Z,38.78
2024-02-26T01:08:40.467Z,37.97
2024-02-26T01:09:44.031Z,36.58
2024-02-26T01:10:46.847Z,36.30
2024-02-26T01:11:49.449Z,34.58
2024-02-26T01:12:52.124Z,35.70
2024-02-26T01:13:57.812Z,36.30
2024-02-26T01:15:00.779Z,36.70
2024-02-26T01:16:04.177Z,37.10
2024-02-26T01:17:06.785Z,37.05
2024-02-26T01:18:09.521Z,33.60
2024-02-26T01:19:12.429Z,32.75
2024-02-26T01:20:15.122Z,34.67
2024-02-26T01:21:17.935Z,35.70
2024-02-26T01:22:21.050Z,39.83
2024-02-26T01:23:23.878Z,38.40
2024-02-26T01:24:26.472Z,48.30
2024-02-26T01:25:29.007Z,43.65
2024-02-26T01:26:32.190Z,45.15
2024-02-26T01:27:34.681Z,44.75
2024-02-26T01:28:37.220Z,44.42
2024-02-26T01:29:39.737Z,39.83
2024-02-26T01:30:42.373Z,39.13
2024-02-26T01:31:45.046Z,42.58
2024-02-26T01:32:47.740Z,36.47
2024-02-26T01:33:50.778Z,36.78
2024-02-26T01:34:53.618Z,40.95
2024-02-26T01:35:56.291Z,37.55
2024-02-26T01:36:59.259Z,38.72
2024-02-26T01:38:01.759Z,35.67
2024-02-26T01:39:04.874Z,36.65
2024-02-26T01:40:08.530Z,38.83
2024-02-26T01:41:11.179Z,37.05
2024-02-26T01:42:13.854Z,38.72
2024-02-26T01:43:16.506Z,38.53
2024-02-26T01:44:19.038Z,38.08
2024-02-26T01:45:26.114Z,39.20
2024-02-26T01:46:31.512Z,35.75
2024-02-26T01:47:34.644Z,39.55
2024-02-26T01:48:37.867Z,34.78
2024-02-26T01:49:41.857Z,34.00
2024-02-26T01:50:44.551Z,30.48
2024-02-26T01:51:47.607Z,37.33
2024-02-26T01:52:52.656Z,36.50
2024-02-26T01:53:55.597Z,39.40
2024-02-26T01:54:58.188Z,43.78
2024-02-26T01:56:00.851Z,38.88
2024-02-26T01:57:05.857Z,36.22
2024-02-26T01:58:08.723Z,30.00
2024-02-26T01:59:11.721Z,31.25
2024-02-26T02:00:15.929Z,29.90
2024-02-26T02:01:23.848Z,31.00
2024-02-26T02:02:27.636Z,33.70
2024-02-26T02:03:32.500Z,35.17
2024-02-26T02:04:37.332Z,32.25
2024-02-26T02:05:44.072Z,34.03
2024-02-26T02:06:48.015Z,34.70
2024-02-26T02:07:52.505Z,34.92
2024-02-26T02:08:58.112Z,35.28
2024-02-26T02:10:01.488Z,34.50
2024-02-26T02:11:04.725Z,31.08
2024-02-26T02:12:07.872Z,33.42
2024-02-26T02:13:10.507Z,35.90
2024-02-26T02:14:13.115Z,33.83
2024-02-26T02:15:15.955Z,31.83
2024-02-26T02:16:18.535Z,30.52
2024-02-26T02:17:21.706Z,32.55
2024-02-26T02:18:24.519Z,29.45
2024-02-26T02:19:27.189Z,31.52
2024-02-26T02:20:36.931Z,36.25
2024-02-26T02:21:39.617Z,29.90
2024-02-26T02:22:42.174Z,30.75
2024-02-26T02:23:47.812Z,32.35
2024-02-26T02:25:59.003Z,29.92
2024-02-26T02:27:01.714Z,36.10
2024-02-26T02:28:05.181Z,44.38
2024-02-26T02:29:08.603Z,62.55
2024-02-26T02:30:12.910Z,61.10
2024-02-26T02:31:17.254Z,57.80
2024-02-26T02:32:21.418Z,61.13
2024-02-26T02:33:25.329Z,62.42
2024-02-26T02:34:28.932Z,63.28
2024-02-26T02:35:31.663Z,67.88
2024-02-26T02:36:34.268Z,58.47
2024-02-26T02:37:38.259Z,53.65
2024-02-26T02:38:51.839Z,47.80
2024-02-26T02:39:56.227Z,42.95
2024-02-26T02:40:59.016Z,41.65
2024-02-26T02:42:01.796Z,42.08
2024-02-26T02:43:05.689Z,37.45
2024-02-26T02:44:08.309Z,33.88
2024-02-26T02:45:11.579Z,34.53
2024-02-26T02:46:14.196Z,33.03
2024-02-26T02:47:16.920Z,32.67
2024-02-26T02:48:19.688Z,33.67
2024-02-26T02:49:25.083Z,33.05
2024-02-26T02:50:30.113Z,33.42
2024-02-26T02:51:32.685Z,32.60
2024-02-26T02:52:35.385Z,32.42
2024-02-26T02:53:38.088Z,35.42
2024-02-26T02:54:42.929Z,38.45
2024-02-26T02:55:45.661Z,38.40
2024-02-26T02:56:48.268Z,41.10
2024-02-26T02:57:50.897Z,35.70
2024-02-26T02:58:53.671Z,40.95
2024-02-26T02:59:56.250Z,46.50
2024-02-26T03:01:01.436Z,38.67
2024-02-26T03:02:04.508Z,37.50
2024-02-26T03:03:07.537Z,39.63
2024-02-26T03:04:10.239Z,36.10
2024-02-26T03:05:12.962Z,33.55
2024-02-26T03:06:15.709Z,31.38
2024-02-26T03:07:18.684Z,28.40
2024-02-26T03:08:21.326Z,29.40
2024-02-26T03:09:24.709Z,30.55
2024-02-26T03:10:27.404Z,29.38
2024-02-26T03:11:30.174Z,34.42
2024-02-26T03:12:34.648Z,33.58
2024-02-26T03:13:37.471Z,30.40
2024-02-26T03:14:40.194Z,35.28
2024-02-26T03:15:43.268Z,34.75
2024-02-26T03:16:45.931Z,29.10
2024-02-26T03:17:48.779Z,35.28
2024-02-26T03:18:51.513Z,31.05
2024-02-26T03:19:55.414Z,31.55
2024-02-26T03:20:58.231Z,26.88
2024-02-26T03:22:00.801Z,26.15
2024-02-26T03:23:03.666Z,28.52
2024-02-26T03:24:07.103Z,23.83
2024-02-26T03:25:09.785Z,29.83
2024-02-26T03:26:15.767Z,24.35
2024-02-26T03:27:18.733Z,22.80
2024-02-26T03:28:21.374Z,25.05
2024-02-26T03:29:24.250Z,22.42
2024-02-26T03:30:26.964Z,27.73
2024-02-26T03:31:29.628Z,25.13
2024-02-26T03:32:32.271Z,25.35
2024-02-26T03:33:35.941Z,23.52
2024-02-26T03:34:40.736Z,28.65
2024-02-26T03:35:43.423Z,25.08
2024-02-26T03:36:45.977Z,37.45
2024-02-26T03:37:48.962Z,30.80
2024-02-26T03:38:51.548Z,25.27
2024-02-26T03:39:54.196Z,24.70
2024-02-26T03:40:56.893Z,24.15
2024-02-26T03:41:59.561Z,22.15
2024-02-26T03:43:02.180Z,20.25
2024-02-26T03:44:04.983Z,19.90
2024-02-26T03:45:08.356Z,20.63
2024-02-26T03:46:14.963Z,19.83
2024-02-26T03:47:17.878Z,27.98
2024-02-26T03:48:20.621Z,22.92
2024-02-26T03:49:23.495Z,19.10
2024-02-26T03:50:26.494Z,18.25
2024-02-26T03:51:32.527Z,18.40
2024-02-26T03:52:35.364Z,17.80
2024-02-26T03:53:38.209Z,21.38
2024-02-26T03:54:40.825Z,21.08
2024-02-26T03:55:43.693Z,26.90
2024-02-26T03:56:46.271Z,24.58
2024-02-26T03:57:48.961Z,29.02
2024-02-26T03:58:51.733Z,35.50
2024-02-26T03:59:54.912Z,38.25
2024-02-26T04:00:57.523Z,36.38
2024-02-26T04:02:00.149Z,48.72
2024-02-26T04:03:03.182Z,56.35
2024-02-26T04:04:05.871Z,52.65
2024-02-26T04:05:14.785Z,57.80
2024-02-26T04:06:20.783Z,55.63
2024-02-26T04:07:23.500Z,49.97
2024-02-26T04:08:26.034Z,48.53
2024-02-26T04:09:28.592Z,47.35
2024-02-26T04:10:31.269Z,48.10
2024-02-26T04:11:34.493Z,46.55
2024-02-26T04:12:37.046Z,46.83
2024-02-26T04:13:39.662Z,45.38
2024-02-26T04:14:42.309Z,44.00
2024-02-26T04:15:45.146Z,43.53
2024-02-26T04:16:48.842Z,48.83
2024-02-26T04:17:51.529Z,47.72
2024-02-26T04:18:54.802Z,42.60
2024-02-26T04:19:57.565Z,41.22
2024-02-26T04:21:00.391Z,43.92
2024-02-26T04:22:03.373Z,43.25
2024-02-26T04:23:06.224Z,44.58
2024-02-26T04:24:08.981Z,43.85
2024-02-26T04:25:11.874Z,45.25
2024-02-26T04:26:14.532Z,44.90
2024-02-26T04:27:17.240Z,42.80
2024-02-26T04:28:21.964Z,38.45
2024-02-26T04:29:24.507Z,37.70
2024-02-26T04:30:27.387Z,38.45
2024-02-26T04:31:31.606Z,37.05
2024-02-26T04:32:35.486Z,31.80
2024-02-26T04:33:38.378Z,35.08
2024-02-26T04:34:41.274Z,39.60
2024-02-26T04:35:43.955Z,40.28
2024-02-26T04:36:46.644Z,44.33
2024-02-26T04:37:49.196Z,48.05
2024-02-26T04:38:51.966Z,56.88
2024-02-26T04:39:54.636Z,55.40
2024-02-26T04:40:57.318Z,56.85
2024-02-26T04:42:00.008Z,50.78
2024-02-26T04:43:02.681Z,49.00
2024-02-26T04:44:05.309Z,48.50
2024-02-26T04:45:09.687Z,49.42
2024-02-26T04:46:12.520Z,48.33
2024-02-26T04:47:15.211Z,36.40
2024-02-26T04:48:17.889Z,31.50
2024-02-26T04:49:20.656Z,32.42
2024-02-26T04:50:23.289Z,34.65
2024-02-26T04:51:26.344Z,32.58
2024-02-26T04:52:29.166Z,28.17
2024-02-26T04:53:32.388Z,31.98
2024-02-26T04:54:35.326Z,32.90
2024-02-26T04:55:37.897Z,31.85
2024-02-26T04:56:40.514Z,33.20
2024-02-26T04:57:43.670Z,33.78
2024-02-26T04:58:46.329Z,30.38
2024-02-26T04:59:48.970Z,35.22
2024-02-26T05:00:51.663Z,28.08
2024-02-26T05:01:54.396Z,27.63
2024-02-26T05:02:57.102Z,26.30
2024-02-26T05:03:59.892Z,24.58
2024-02-26T05:05:03.345Z,24.50
2024-02-26T05:06:06.937Z,28.65
2024-02-26T05:07:09.691Z,36.92
2024-02-26T05:08:12.669Z,46.78
2024-02-26T05:09:15.271Z,57.35
2024-02-26T05:10:18.141Z,64.45
2024-02-26T05:11:20.675Z,66.53
2024-02-26T05:12:23.474Z,65.85
2024-02-26T05:13:26.124Z,66.32
2024-02-26T05:14:28.682Z,59.08
2024-02-26T05:15:31.302Z,58.38
2024-02-26T05:16:33.959Z,52.80
2024-02-26T05:17:36.654Z,52.90
2024-02-26T05:18:39.584Z,50.13
2024-02-26T05:19:42.281Z,46.65
2024-02-26T05:20:44.954Z,38.70
2024-02-26T05:21:50.258Z,36.83
2024-02-26T05:22:53.102Z,32.72
2024-02-26T05:23:55.805Z,34.50
2024-02-26T05:24:58.314Z,28.30
2024-02-26T05:26:00.905Z,31.00
2024-02-26T05:27:03.674Z,30.63
2024-02-26T05:28:06.548Z,31.02
2024-02-26T05:29:09.197Z,28.30
2024-02-26T05:30:12.810Z,34.05
2024-02-26T05:31:16.348Z,36.85
2024-02-26T05:32:18.911Z,32.85
2024-02-26T05:33:21.485Z,29.38
2024-02-26T05:34:24.489Z,34.40
2024-02-26T05:35:27.363Z,31.63
2024-02-26T05:36:34.321Z,27.73
2024-02-26T05:37:37.084Z,28.88
2024-02-26T05:38:39.635Z,30.48
2024-02-26T05:39:42.444Z,27.73
2024-02-26T05:40:47.016Z,28.70
2024-02-26T05:41:50.986Z,23.55
2024-02-26T05:42:53.582Z,24.58
2024-02-26T05:43:56.783Z,22.42
2024-02-26T05:44:59.453Z,24.58
2024-02-26T05:46:02.062Z,25.23
2024-02-26T05:47:07.471Z,25.77
2024-02-26T05:48:10.383Z,24.35
2024-02-26T05:49:13.083Z,23.10
2024-02-26T05:50:16.702Z,22.27
2024-02-26T05:51:19.709Z,20.85
2024-02-26T05:52:24.249Z,20.73
2024-02-26T05:53:28.645Z,22.10
2024-02-26T05:54:31.242Z,19.35
2024-02-26T05:55:34.043Z,21.80
2024-02-26T05:56:36.893Z,19.05
2024-02-26T05:57:39.534Z,23.52
2024-02-26T05:58:42.172Z,22.25
2024-02-26T05:59:44.835Z,17.90
2024-02-26T06:00:47.688Z,19.63
2024-02-26T06:01:50.548Z,18.58
2024-02-26T06:02:53.291Z,17.58
2024-02-26T06:03:55.883Z,17.42
2024-02-26T06:04:59.034Z,18.95
2024-02-26T06:06:01.784Z,17.05
2024-02-26T06:07:04.786Z,16.83
2024-02-26T06:08:08.071Z,15.50
2024-02-26T06:09:11.654Z,14.38
2024-02-26T06:10:15.068Z,17.42
2024-02-26T06:11:17.805Z,14.95
2024-02-26T06:12:20.408Z,19.92
2024-02-26T06:13:23.028Z,20.05
2024-02-26T06:14:25.886Z,20.60
2024-02-26T06:15:28.669Z,19.30
2024-02-26T06:16:32.285Z,21.42
2024-02-26T06:17:35.152Z,18.05
2024-02-26T06:18:39.211Z,20.80
2024-02-26T06:19:41.961Z,27.63
2024-02-26T06:20:44.685Z,19.00
2024-02-26T06:21:47.211Z,26.35
2024-02-26T06:22:49.942Z,28.73
2024-02-26T06:23:52.540Z,22.30
2024-02-26T06:24:55.161Z,23.08
2024-02-26T06:25:57.680Z,21.40
2024-02-26T06:27:01.037Z,21.25
2024-02-26T06:28:03.750Z,23.98
2024-02-26T06:29:06.342Z,24.42
2024-02-26T06:30:12.032Z,20.83
2024-02-26T06:32:18.425Z,21.23
2024-02-26T06:33:21.289Z,16.52
2024-02-26T06:34:24.328Z,14.60
2024-02-26T06:35:28.462Z,14.70
2024-02-26T06:36:33.211Z,15.32
2024-02-26T06:37:37.242Z,15.27
2024-02-26T06:38:39.831Z,13.13
2024-02-26T06:39:43.060Z,15.45
2024-02-26T06:40:47.162Z,15.40
2024-02-26T06:41:49.815Z,17.92
2024-02-26T06:42:52.721Z,16.50
2024-02-26T06:43:55.884Z,17.73
2024-02-26T06:44:59.226Z,17.05
2024-02-26T06:46:02.102Z,18.85
2024-02-26T06:47:05.062Z,16.50
2024-02-26T06:48:08.450Z,13.70
2024-02-26T06:49:11.265Z,16.88
2024-02-26T06:50:16.630Z,14.95
2024-02-26T06:51:19.247Z,14.18
2024-02-26T06:52:22.056Z,15.77
2024-02-26T06:53:24.637Z,14.40
2024-02-26T06:54:27.279Z,19.60
2024-02-26T06:55:31.272Z,24.77
2024-02-26T06:56:33.963Z,28.58
2024-02-26T06:57:36.728Z,83.05
2024-02-26T06:58:39.337Z,121.38
2024-02-26T06:59:41.959Z,157.43
2024-02-26T07:00:44.703Z,196.23
2024-02-26T07:01:47.327Z,187.95
2024-02-26T07:02:49.926Z,83.45
2024-02-26T07:03:52.593Z,34.33
2024-02-26T07:04:57.267Z,20.25
2024-02-26T07:05:59.856Z,17.45
2024-02-26T07:07:02.665Z,18.98
2024-02-26T07:08:05.838Z,16.23
2024-02-26T07:09:08.629Z,18.98
2024-02-26T07:10:13.379Z,17.83
2024-02-26T07:11:16.043Z,15.70
2024-02-26T07:12:18.901Z,15.32
2024-02-26T07:13:22.152Z,17.73
2024-02-26T07:14:25.860Z,15.30
2024-02-26T07:15:29.184Z,16.25
2024-02-26T07:16:31.735Z,15.80
2024-02-26T07:17:35.376Z,19.55
2024-02-26T07:18:38.565Z,18.00
2024-02-26T07:19:41.425Z,16.45
2024-02-26T07:20:44.275Z,16.10
2024-02-26T07:21:46.888Z,15.90
2024-02-26T07:22:49.402Z,15.75
2024-02-26T07:23:52.612Z,17.48
2024-02-26T07:24:55.228Z,13.70
2024-02-26T07:25:57.881Z,17.00
2024-02-26T07:27:00.476Z,16.08
2024-02-26T07:28:03.144Z,16.92
2024-02-26T07:29:06.586Z,12.95
2024-02-26T07:30:10.675Z,15.63
2024-02-26T07:31:13.865Z,14.13
2024-02-26T07:32:16.950Z,14.05
2024-02-26T07:33:19.801Z,15.32
2024-02-26T07:34:28.691Z,13.00
2024-02-26T07:35:31.355Z,12.75
2024-02-26T07:36:34.115Z,14.90
2024-02-26T07:37:36.781Z,13.43
2024-02-26T07:38:43.283Z,14.90
2024-02-26T07:39:46.837Z,15.57
2024-02-26T07:40:56.114Z,13.57
2024-02-26T07:42:05.699Z,14.15
2024-02-26T07:43:08.388Z,14.48
2024-02-26T07:44:11.018Z,14.48
2024-02-26T07:45:16.626Z,12.00
2024-02-26T07:46:19.202Z,11.20
2024-02-26T07:47:22.325Z,13.57
2024-02-26T07:48:25.568Z,15.02
2024-02-26T07:49:28.384Z,21.20
2024-02-26T07:50:30.980Z,17.92
2024-02-26T07:51:33.697Z,14.98
2024-02-26T07:52:36.382Z,18.55
2024-02-26T07:53:38.929Z,12.98
2024-02-26T07:54:41.675Z,19.52
2024-02-26T07:55:44.222Z,19.65
2024-02-26T07:56:46.948Z,15.88
2024-02-26T07:57:49.655Z,17.33
2024-02-26T07:58:52.320Z,14.82
2024-02-26T07:59:55.289Z,15.30
2024-02-26T08:00:58.054Z,15.43
2024-02-26T08:02:01.782Z,14.70
2024-02-26T08:03:04.780Z,16.00
2024-02-26T08:04:07.584Z,14.05
2024-02-26T08:05:10.211Z,16.23
2024-02-26T08:06:12.934Z,12.93
2024-02-26T08:07:16.969Z,13.05
2024-02-26T08:08:20.351Z,12.18
2024-02-26T08:09:23.174Z,12.30
2024-02-26T08:10:25.841Z,17.77
2024-02-26T08:11:29.357Z,14.35
2024-02-26T08:12:32.255Z,13.95
2024-02-26T08:13:34.813Z,13.68
2024-02-26T08:14:37.336Z,12.73
2024-02-26T08:15:39.950Z,14.55
2024-02-26T08:16:42.500Z,10.48
2024-02-26T08:17:45.737Z,12.52
2024-02-26T08:18:48.553Z,11.80
2024-02-26T08:19:51.496Z,18.75
2024-02-26T08:20:54.274Z,20.15
2024-02-26T08:21:56.986Z,21.92
2024-02-26T08:22:59.672Z,19.08
2024-02-26T08:24:02.367Z,48.30
2024-02-26T08:25:07.903Z,95.00
2024-02-26T08:27:15.069Z,62.10
2024-02-26T08:28:19.227Z,69.90
2024-02-26T08:29:21.962Z,98.35
2024-02-26T08:30:24.597Z,131.73
2024-02-26T08:31:28.352Z,115.55
2024-02-26T08:32:30.962Z,113.68
2024-02-26T08:33:35.265Z,89.78
2024-02-26T08:34:38.329Z,60.47
2024-02-26T08:35:40.930Z,45.17
2024-02-26T08:36:45.602Z,31.45
2024-02-26T08:37:49.562Z,22.65
2024-02-26T08:38:52.302Z,14.23
2024-02-26T08:39:55.019Z,14.93
2024-02-26T08:40:57.663Z,18.65
2024-02-26T08:42:00.331Z,31.75
2024-02-26T08:43:03.196Z,31.50
2024-02-26T08:44:05.798Z,38.80
2024-02-26T08:45:09.951Z,36.15
2024-02-26T08:46:14.319Z,28.38
2024-02-26T08:47:17.325Z,22.48
2024-02-26T08:48:20.001Z,31.58
2024-02-26T08:49:25.050Z,31.05
2024-02-26T08:50:27.960Z,39.67
2024-02-26T08:51:30.729Z,29.30
2024-02-26T08:52:34.413Z,29.88
2024-02-26T08:53:42.527Z,27.38
2024-02-26T08:54:46.610Z,20.30
2024-02-26T08:55:49.176Z,21.02
2024-02-26T08:56:51.878Z,23.95
2024-02-26T08:57:54.478Z,23.17
2024-02-26T08:58:58.554Z,18.88
2024-02-26T09:00:02.303Z,19.80
2024-02-26T09:01:05.063Z,18.10
2024-02-26T09:02:09.649Z,19.00
2024-02-26T09:03:12.426Z,16.30
2024-02-26T09:04:14.995Z,19.88
2024-02-26T09:05:17.578Z,20.92
2024-02-26T09:06:20.305Z,20.98
2024-02-26T09:07:23.670Z,15.60
2024-02-26T09:08:26.224Z,18.60
2024-02-26T09:09:29.195Z,23.55
2024-02-26T09:10:31.782Z,20.08
2024-02-26T09:11:34.439Z,16.27
2024-02-26T09:12:38.446Z,16.88
2024-02-26T09:13:41.060Z,14.15
2024-02-26T09:14:44.679Z,16.83
2024-02-26T09:15:47.369Z,13.85
2024-02-26T09:16:49.888Z,16.77
2024-02-26T09:17:53.469Z,12.93
2024-02-26T09:18:56.496Z,15.73
2024-02-26T09:19:59.242Z,13.80
2024-02-26T09:21:07.336Z,11.45
2024-02-26T09:22:10.031Z,13.07
2024-02-26T09:23:12.880Z,14.65
2024-02-26T09:24:16.064Z,14.98
2024-02-26T09:25:19.214Z,12.10
2024-02-26T09:26:21.941Z,11.85
2024-02-26T09:27:24.903Z,14.10
2024-02-26T09:28:27.609Z,11.13
2024-02-26T09:29:30.273Z,11.35
2024-02-26T09:30:32.897Z,12.88
2024-02-26T09:31:35.528Z,9.85
2024-02-26T09:32:38.935Z,10.90
2024-02-26T09:33:41.914Z,12.13
2024-02-26T09:34:44.885Z,15.85
2024-02-26T09:35:47.672Z,11.95
2024-02-26T09:36:50.305Z,12.48
2024-02-26T09:37:53.266Z,12.23
2024-02-26T09:39:00.799Z,12.25
2024-02-26T09:40:07.350Z,12.75
2024-02-26T09:41:17.296Z,13.15
2024-02-26T09:42:21.056Z,17.50
2024-02-26T09:43:26.925Z,15.70
2024-02-26T09:44:31.727Z,17.80
2024-02-26T09:45:35.726Z,11.95
2024-02-26T09:46:39.158Z,14.82
2024-02-26T09:47:43.647Z,15.05
2024-02-26T09:48:48.651Z,12.93
2024-02-26T09:49:54.344Z,18.23
2024-02-26T09:50:57.239Z,10.30
2024-02-26T09:52:03.550Z,13.43
2024-02-26T09:53:11.237Z,13.13
2024-02-26T09:54:16.606Z,13.85
2024-02-26T09:55:20.244Z,11.90
2024-02-26T09:56:23.153Z,9.40
2024-02-26T09:57:27.345Z,9.18
2024-02-26T09:58:31.540Z,10.30
2024-02-26T09:59:41.751Z,13.23
2024-02-26T10:00:49.994Z,11.18
2024-02-26T10:01:54.530Z,10.15
2024-02-26T10:03:01.773Z,10.10
2024-02-26T10:04:05.929Z,10.88
2024-02-26T10:05:15.779Z,11.13
2024-02-26T10:14:25.942Z,14.35
2024-02-26T10:15:29.051Z,17.70
2024-02-26T10:16:33.000Z,16.65
2024-02-26T10:17:37.956Z,12.07
2024-02-26T10:18:58.971Z,12.15
2024-02-26T10:20:19.599Z,11.15
2024-02-26T10:21:23.898Z,11.00
2024-02-26T10:22:28.972Z,12.07
2024-02-26T10:23:31.560Z,12.13
2024-02-26T10:24:35.701Z,9.90
2024-02-26T10:25:38.704Z,10.80
2024-02-26T10:26:48.123Z,10.15
2024-02-26T10:27:51.192Z,9.10
2024-02-26T10:28:55.668Z,13.15
2024-02-26T10:29:58.838Z,11.70
2024-02-26T10:31:01.832Z,9.20
2024-02-26T10:32:05.195Z,11.55
2024-02-26T10:33:08.992Z,10.90
2024-02-26T10:34:12.406Z,13.00
2024-02-26T10:35:16.904Z,11.88
2024-02-26T10:36:19.558Z,10.48
2024-02-26T10:37:25.897Z,11.68
2024-02-26T10:38:31.285Z,15.32
2024-02-26T10:39:34.248Z,9.52
2024-02-26T10:40:36.906Z,11.05
2024-02-26T10:41:39.870Z,11.43
2024-02-26T10:42:44.149Z,11.30
2024-02-26T10:43:48.575Z,10.82
2024-02-26T10:44:51.269Z,11.48
2024-02-26T10:45:56.326Z,15.63
2024-02-26T10:46:58.949Z,11.32
2024-02-26T10:48:02.240Z,10.50
2024-02-26T10:49:07.650Z,7.93
2024-02-26T10:50:11.308Z,10.18
2024-02-26T10:51:15.625Z,10.30
2024-02-26T10:52:20.952Z,14.05
2024-02-26T10:53:25.618Z,16.65
2024-02-26T10:54:30.975Z,9.35
2024-02-26T10:55:36.729Z,15.13
2024-02-26T10:56:44.573Z,9.38
2024-02-26T10:57:48.885Z,13.23
2024-02-26T10:58:51.968Z,12.80
2024-02-26T10:59:56.308Z,10.80
2024-02-26T11:01:00.288Z,10.93
2024-02-26T11:02:04.261Z,11.60
2024-02-26T11:03:08.533Z,8.63
2024-02-26T13:47:33.224Z,9.23
2024-02-26T13:48:37.083Z,13.23
2024-02-26T13:49:39.890Z,11.52
2024-02-26T13:50:47.292Z,13.82
2024-02-26T13:51:50.392Z,13.90
2024-02-26T13:52:55.169Z,11.43
2024-02-26T13:53:57.891Z,8.45
2024-02-26T13:55:00.787Z,9.48
2024-02-26T13:56:06.640Z,11.43
2024-02-26T13:57:10.705Z,8.30
2024-02-26T13:58:15.531Z,7.47
2024-02-26T13:59:18.236Z,5.78
2024-02-26T14:00:21.284Z,7.82
2024-02-26T14:01:23.947Z,6.97
2024-02-26T14:02:27.002Z,9.00
2024-02-26T14:03:29.725Z,6.65
2024-02-26T14:04:32.564Z,12.55
2024-02-26T14:05:35.335Z,5.95
2024-02-26T14:06:38.486Z,8.98
2024-02-26T14:07:42.140Z,6.43
2024-02-26T14:08:44.889Z,8.05
2024-02-26T14:09:50.450Z,8.55
2024-02-26T14:10:53.525Z,8.80
2024-02-26T14:11:56.175Z,8.48
2024-02-26T14:13:02.741Z,10.23
2024-02-26T14:14:05.704Z,9.95
2024-02-26T14:15:12.121Z,15.65
2024-02-26T14:16:15.625Z,7.03
2024-02-26T14:17:18.297Z,11.30
2024-02-26T14:18:21.032Z,6.20
2024-02-26T14:19:24.997Z,10.98
2024-02-26T14:20:27.920Z,6.90
2024-02-26T14:21:30.921Z,8.13
2024-02-26T14:22:33.540Z,8.40
2024-02-26T14:23:36.946Z,11.23
2024-02-26T14:24:40.903Z,9.25
2024-02-26T14:25:43.582Z,14.50
2024-02-26T14:26:47.132Z,13.23
2024-02-26T14:27:50.400Z,11.75
2024-02-26T14:28:53.124Z,13.98
2024-02-26T14:29:56.568Z,14.85
2024-02-26T14:30:59.225Z,14.02
2024-02-26T14:32:01.820Z,16.27
2024-02-26T14:33:04.843Z,12.25
2024-02-26T14:34:08.708Z,14.38
2024-02-26T14:35:16.269Z,10.07
2024-02-26T14:36:22.064Z,9.48
2024-02-26T14:37:24.640Z,10.13
2024-02-26T14:38:27.303Z,9.82
2024-02-26T14:39:30.514Z,13.75
2024-02-26T14:40:33.518Z,15.70
2024-02-26T14:41:36.014Z,12.20
2024-02-26T14:42:38.908Z,14.23
2024-02-26T14:43:43.445Z,14.65
2024-02-26T14:44:48.947Z,11.30
2024-02-26T14:45:51.676Z,14.07
2024-02-26T14:46:54.534Z,16.15
2024-02-26T14:47:57.284Z,11.38
2024-02-26T14:48:59.951Z,13.95
2024-02-26T14:50:03.443Z,11.32
2024-02-26T14:51:07.488Z,12.40
2024-02-26T14:52:10.508Z,10.05
2024-02-26T14:53:13.014Z,10.80
2024-02-26T14:54:16.168Z,17.00
2024-02-26T14:55:19.050Z,29.73
2024-02-26T14:56:21.750Z,31.33
2024-02-26T14:57:26.080Z,30.50
2024-02-26T14:58:28.804Z,35.83
2024-02-26T14:59:32.453Z,41.58
2024-02-26T15:00:36.189Z,29.95
2024-02-26T15:01:39.186Z,69.95
2024-02-26T15:02:41.808Z,64.85
2024-02-26T15:03:45.035Z,74.03
2024-02-26T15:04:48.406Z,68.32
2024-02-26T15:05:51.123Z,28.65
2024-02-26T15:06:53.907Z,34.10
2024-02-26T15:07:56.628Z,32.80
2024-02-26T15:08:59.399Z,30.88
2024-02-26T15:10:02.214Z,15.50
2024-02-26T15:11:04.992Z,12.45
2024-02-26T15:12:08.414Z,14.27
2024-02-26T15:13:11.038Z,17.63
2024-02-26T15:14:13.615Z,20.70
2024-02-26T15:15:16.645Z,23.92
2024-02-26T15:16:21.852Z,22.77
2024-02-26T15:17:25.619Z,15.77
2024-02-26T15:18:28.570Z,15.70
2024-02-26T15:19:31.543Z,8.75
2024-02-26T15:20:34.188Z,14.60
2024-02-26T15:21:47.149Z,32.17
2024-02-26T15:22:49.774Z,17.50
2024-02-26T15:24:01.984Z,17.10
2024-02-26T15:25:13.612Z,17.75
2024-02-26T15:26:19.333Z,15.93
2024-02-26T15:27:22.217Z,17.65
2024-02-26T15:28:26.605Z,9.63
2024-02-26T15:29:29.208Z,14.77
2024-02-26T15:30:34.179Z,16.45
2024-02-26T15:31:37.783Z,14.43
2024-02-26T15:32:40.380Z,14.55
2024-02-26T15:33:43.148Z,11.88
2024-02-26T15:34:45.821Z,11.30
2024-02-26T15:35:48.706Z,17.58
2024-02-26T15:36:51.355Z,13.93
2024-02-26T15:37:53.938Z,14.15
2024-02-26T15:38:58.251Z,13.70
2024-02-26T15:40:01.147Z,18.92
2024-02-26T15:41:03.813Z,22.75
2024-02-26T15:42:06.502Z,16.58
2024-02-26T15:43:11.013Z,18.17
2024-02-26T15:44:15.040Z,18.63
2024-02-26T15:45:18.784Z,20.38
2024-02-26T15:46:21.380Z,18.08
2024-02-26T15:47:24.025Z,13.50
2024-02-26T15:48:26.961Z,16.42
2024-02-26T15:49:29.640Z,15.20
2024-02-26T15:50:32.258Z,10.50
2024-02-26T15:51:35.251Z,11.15
2024-02-26T15:52:38.884Z,11.80
2024-02-26T15:53:41.649Z,13.50
2024-02-26T15:54:44.325Z,11.13
2024-02-26T15:55:47.093Z,10.20
2024-02-26T15:56:52.761Z,10.32
2024-02-26T15:57:55.421Z,10.07
2024-02-26T15:58:59.266Z,10.90
2024-02-26T16:00:03.086Z,9.65
2024-02-26T16:01:22.657Z,13.15
2024-02-26T16:02:27.713Z,18.50
2024-02-26T16:03:30.392Z,15.07
2024-02-26T16:04:33.080Z,13.75
2024-02-26T16:05:35.769Z,17.48
2024-02-26T16:06:45.472Z,19.95
2024-02-26T16:07:55.403Z,23.35
2024-02-26T16:08:58.072Z,14.88
2024-02-26T16:10:00.683Z,16.83
2024-02-26T16:11:03.546Z,17.15
2024-02-26T16:12:16.726Z,16.38
2024-02-26T16:13:21.245Z,14.40
2024-02-26T16:14:51.835Z,20.80
2024-02-26T16:16:04.457Z,17.23
2024-02-26T16:17:36.225Z,26.38
2024-02-26T16:18:39.572Z,39.13
2024-02-26T16:19:42.554Z,34.35
2024-02-26T16:20:45.191Z,37.63
2024-02-26T16:21:47.878Z,40.63
2024-02-26T16:22:50.521Z,46.70
2024-02-26T16:23:53.149Z,51.35
2024-02-26T16:24:56.149Z,43.38
2024-02-26T16:25:58.726Z,45.05
2024-02-26T16:27:01.671Z,44.92
2024-02-26T16:28:04.623Z,50.67
2024-02-26T16:29:07.292Z,69.63
2024-02-26T16:30:11.264Z,115.82
2024-02-26T16:31:14.239Z,61.55
2024-02-26T16:32:16.835Z,42.67
2024-02-26T16:33:19.820Z,26.50
2024-02-26T16:34:22.647Z,34.97